createdAt,value
2018-09-08T00:00:39.000Z,29.1
2018-09-08T00:02:39.000Z,29.1
2018-09-08T00:03:39.000Z,29.1
2018-09-08T00:05:39.000Z,29.1
2018-09-08T00:07:39.000Z,29.1
2018-09-08T00:08:39.000Z,29.1
2018-09-08T00:10:39.000Z,29.1
2018-09-08T00:11:39.000Z,29.2
2018-09-08T00:13:39.000Z,29.1
2018-09-08T00:14:39.000Z,29.1
2018-09-08T00:15:39.000Z,29.2
2018-09-08T00:16:39.000Z,29.2
2018-09-08T00:17:39.000Z,29.2
2018-09-08T00:19:39.000Z,29.2
2018-09-08T00:21:39.000Z,29.2
2018-09-08T00:23:39.000Z,29.2
2018-09-08T00:24:39.000Z,29.2
2018-09-08T00:25:39.000Z,29.2
2018-09-08T00:26:39.000Z,29.2
2018-09-08T00:28:39.000Z,29.2
2018-09-08T00:29:39.000Z,29.2
2018-09-08T00:30:39.000Z,29.3
2018-09-08T00:32:39.000Z,29.2
2018-09-08T00:33:39.000Z,29.2
2018-09-08T00:34:39.000Z,29.3
2018-09-08T00:36:39.000Z,29.3
2018-09-08T00:37:39.000Z,29.3
2018-09-08T00:39:39.000Z,29.3
2018-09-08T00:41:39.000Z,29.2
2018-09-08T00:42:39.000Z,29.1
2018-09-08T00:44:39.000Z,29.1
2018-09-08T00:46:39.000Z,29.1
2018-09-08T00:48:39.000Z,29
2018-09-08T00:49:39.000Z,29
2018-09-08T00:51:39.000Z,29
2018-09-08T00:52:39.000Z,29
2018-09-08T00:54:39.000Z,29.1
2018-09-08T00:56:24.000Z,29.1
2018-09-08T00:57:39.000Z,29
2018-09-08T00:58:39.000Z,29
2018-09-08T01:00:39.000Z,29.1
2018-09-08T01:02:24.000Z,29.1
2018-09-08T01:03:39.000Z,29
2018-09-08T01:05:40.000Z,29
2018-09-08T01:06:40.000Z,29
2018-09-08T01:08:40.000Z,29.1
2018-09-08T01:10:40.000Z,29
2018-09-08T01:12:40.000Z,29
2018-09-08T01:13:40.000Z,29
2018-09-08T01:15:40.000Z,29
2018-09-08T01:17:40.000Z,29
2018-09-08T01:18:40.000Z,29
2018-09-08T01:19:40.000Z,29
2018-09-08T01:21:40.000Z,29
2018-09-08T01:22:40.000Z,29
2018-09-08T01:24:40.000Z,29.1
2018-09-08T01:25:40.000Z,29.1
2018-09-08T01:26:40.000Z,29.1
2018-09-08T01:28:40.000Z,29.2
2018-09-08T01:30:40.000Z,29.1
2018-09-08T01:31:40.000Z,29.1
2018-09-08T01:33:40.000Z,29.1
2018-09-08T01:35:40.000Z,29
2018-09-08T01:37:40.000Z,28.9
2018-09-08T01:39:40.000Z,28.9
2018-09-08T01:41:40.000Z,28.9
2018-09-08T01:42:40.000Z,28.9
2018-09-08T01:43:40.000Z,28.9
2018-09-08T01:45:40.000Z,29
2018-09-08T01:46:40.000Z,29
2018-09-08T01:48:40.000Z,29
2018-09-08T01:50:40.000Z,29
2018-09-08T01:52:40.000Z,28.9
2018-09-08T01:54:40.000Z,28.8
2018-09-08T01:55:40.000Z,28.8
2018-09-08T01:56:40.000Z,28.9
2018-09-08T01:58:40.000Z,28.9
2018-09-08T02:00:40.000Z,28.9
2018-09-08T02:01:40.000Z,28.9
2018-09-08T02:02:40.000Z,29
2018-09-08T02:04:40.000Z,29
2018-09-08T02:05:40.000Z,29.1
2018-09-08T02:07:40.000Z,29.1
2018-09-08T02:08:40.000Z,29.1
2018-09-08T02:09:40.000Z,29.1
2018-09-08T02:11:40.000Z,29
2018-09-08T02:13:40.000Z,29
2018-09-08T02:15:40.000Z,28.9
2018-09-08T02:17:40.000Z,28.8
2018-09-08T02:19:40.000Z,28.8
2018-09-08T02:20:40.000Z,28.8
2018-09-08T02:22:40.000Z,28.9
2018-09-08T02:23:40.000Z,28.9
2018-09-08T02:24:40.000Z,29
2018-09-08T02:25:40.000Z,29
2018-09-08T02:26:40.000Z,29.1
2018-09-08T02:28:40.000Z,29.1
2018-09-08T02:29:40.000Z,29.1
2018-09-08T02:31:40.000Z,29.1
2018-09-08T02:32:40.000Z,29.1
2018-09-08T02:34:40.000Z,29.1
2018-09-08T02:35:40.000Z,29.1
2018-09-08T02:37:40.000Z,29.1
2018-09-08T02:38:40.000Z,29.1
2018-09-08T02:40:40.000Z,29.1
2018-09-08T02:41:40.000Z,29.1
2018-09-08T02:43:40.000Z,29.1
2018-09-08T02:45:40.000Z,29
2018-09-08T02:47:40.000Z,29
2018-09-08T02:49:40.000Z,28.9
2018-09-08T02:51:40.000Z,28.8
2018-09-08T02:52:40.000Z,28.8
2018-09-08T02:53:40.000Z,28.9
2018-09-08T02:54:40.000Z,28.9
2018-09-08T02:55:40.000Z,29
2018-09-08T02:57:40.000Z,29
2018-09-08T02:59:40.000Z,28.9
2018-09-08T03:00:40.000Z,28.9
2018-09-08T03:02:40.000Z,28.9
2018-09-08T03:04:40.000Z,28.9
2018-09-08T03:06:40.000Z,28.9
2018-09-08T03:08:40.000Z,28.8
2018-09-08T03:10:40.000Z,28.7
2018-09-08T03:11:39.000Z,28.7
2018-09-08T03:13:39.000Z,28.8
2018-09-08T03:14:39.000Z,28.8
2018-09-08T03:16:39.000Z,28.9
2018-09-08T03:17:39.000Z,28.9
2018-09-08T03:19:39.000Z,28.9
2018-09-08T03:21:39.000Z,28.9
2018-09-08T03:22:39.000Z,28.9
2018-09-08T03:24:39.000Z,28.9
2018-09-08T03:25:39.000Z,29
2018-09-08T03:27:39.000Z,29
2018-09-08T03:29:24.000Z,29
2018-09-08T03:30:39.000Z,28.9
2018-09-08T03:31:39.000Z,28.9
2018-09-08T03:32:40.000Z,29
2018-09-08T03:34:39.000Z,29
2018-09-08T03:36:39.000Z,29
2018-09-08T03:37:39.000Z,29
2018-09-08T03:38:40.000Z,29
2018-09-08T03:40:39.000Z,29
2018-09-08T03:41:39.000Z,29
2018-09-08T03:42:39.000Z,29
2018-09-08T03:43:40.000Z,29
2018-09-08T03:45:39.000Z,29
2018-09-08T03:47:24.000Z,29
2018-09-08T03:48:39.000Z,28.9
2018-09-08T03:49:39.000Z,28.9
2018-09-08T03:51:24.000Z,28.9
2018-09-08T03:52:39.000Z,28.9
2018-09-08T03:53:39.000Z,28.9
2018-09-08T03:55:39.000Z,28.9
2018-09-08T03:56:39.000Z,29
2018-09-08T03:58:39.000Z,29
2018-09-08T03:59:39.000Z,29
2018-09-08T04:00:39.000Z,29
2018-09-08T04:01:39.000Z,29
2018-09-08T04:03:39.000Z,29
2018-09-08T04:04:39.000Z,29
2018-09-08T04:06:39.000Z,29
2018-09-08T04:08:39.000Z,29
2018-09-08T04:10:39.000Z,28.9
2018-09-08T04:11:40.000Z,28.9
2018-09-08T04:13:24.000Z,28.9
2018-09-08T04:14:39.000Z,28.9
2018-09-08T04:15:40.000Z,28.9
2018-09-08T04:17:40.000Z,28.9
2018-09-08T04:18:40.000Z,28.9
2018-09-08T04:19:40.000Z,28.9
2018-09-08T04:21:40.000Z,28.9
2018-09-08T04:22:40.000Z,28.9
2018-09-08T04:24:40.000Z,28.9
2018-09-08T04:25:40.000Z,28.9
2018-09-08T04:26:40.000Z,29
2018-09-08T04:27:40.000Z,29
2018-09-08T04:29:40.000Z,29
2018-09-08T04:31:40.000Z,28.9
2018-09-08T04:33:40.000Z,28.8
2018-09-08T04:34:40.000Z,28.8
2018-09-08T04:35:40.000Z,28.8
2018-09-08T04:37:25.000Z,28.9
2018-09-08T04:38:40.000Z,28.9
2018-09-08T04:39:40.000Z,28.9
2018-09-08T04:41:40.000Z,28.9
2018-09-08T04:43:25.000Z,28.9
2018-09-08T04:44:40.000Z,28.9
2018-09-08T04:46:40.000Z,28.8
2018-09-08T04:47:40.000Z,28.8
2018-09-08T04:49:25.000Z,28.9
2018-09-08T04:50:40.000Z,28.8
2018-09-08T04:51:40.000Z,28.8
2018-09-08T04:52:40.000Z,28.9
2018-09-08T04:54:40.000Z,28.9
2018-09-08T04:56:25.000Z,28.9
2018-09-08T04:57:40.000Z,28.9
2018-09-08T04:58:40.000Z,28.9
2018-09-08T05:00:40.000Z,28.9
2018-09-08T05:01:40.000Z,28.9
2018-09-08T05:03:40.000Z,28.9
2018-09-08T05:04:40.000Z,29
2018-09-08T05:05:40.000Z,29
2018-09-08T05:07:25.000Z,29
2018-09-08T05:08:40.000Z,28.9
2018-09-08T05:10:40.000Z,28.9
2018-09-08T05:11:40.000Z,28.9
2018-09-08T05:13:40.000Z,28.9
2018-09-08T05:15:40.000Z,28.9
2018-09-08T05:17:40.000Z,28.8
2018-09-08T05:19:40.000Z,28.7
2018-09-08T05:21:40.000Z,28.7
2018-09-08T05:23:40.000Z,28.6
2018-09-08T05:25:40.000Z,28.6
2018-09-08T05:27:40.000Z,28.6
2018-09-08T05:29:40.000Z,28.6
2018-09-08T05:31:25.000Z,28.7
2018-09-08T05:32:40.000Z,28.6
2018-09-08T05:33:40.000Z,28.7
2018-09-08T05:35:40.000Z,28.8
2018-09-08T05:36:40.000Z,28.8
2018-09-08T05:38:40.000Z,28.8
2018-09-08T05:40:40.000Z,28.8
2018-09-08T05:42:40.000Z,28.8
2018-09-08T05:44:40.000Z,28.8
2018-09-08T05:46:40.000Z,28.7
2018-09-08T05:48:40.000Z,28.7
2018-09-08T05:50:40.000Z,28.7
2018-09-08T05:52:40.000Z,28.7
2018-09-08T05:54:40.000Z,28.7
2018-09-08T05:56:40.000Z,28.7
2018-09-08T05:58:40.000Z,28.8
2018-09-08T06:00:40.000Z,28.8
2018-09-08T06:02:40.000Z,28.8
2018-09-08T06:03:40.000Z,28.9
2018-09-08T06:05:25.000Z,29
2018-09-08T06:06:40.000Z,29
2018-09-08T06:07:40.000Z,29
2018-09-08T06:09:40.000Z,29.1
2018-09-08T06:10:40.000Z,29.2
2018-09-08T06:12:40.000Z,29.3
2018-09-08T06:13:40.000Z,29.3
2018-09-08T06:14:40.000Z,29.3
2018-09-08T06:16:40.000Z,29.3
2018-09-08T06:17:40.000Z,29.4
2018-09-08T06:19:40.000Z,29.4
2018-09-08T06:21:40.000Z,29.4
2018-09-08T06:23:39.000Z,29.3
2018-09-08T06:25:39.000Z,29.3
2018-09-08T06:27:24.000Z,29.3
2018-09-08T06:28:39.000Z,29.3
2018-09-08T06:30:24.000Z,29.4
2018-09-08T06:31:39.000Z,29.4
2018-09-08T06:33:39.000Z,29.4
2018-09-08T06:35:24.000Z,29.5
2018-09-08T06:36:39.000Z,29.5
2018-09-08T06:37:39.000Z,29.5
2018-09-08T06:38:39.000Z,29.6
2018-09-08T06:40:39.000Z,29.7
2018-09-08T06:41:39.000Z,29.7
2018-09-08T06:42:39.000Z,29.8
2018-09-08T06:43:39.000Z,29.9
2018-09-08T06:45:39.000Z,30
2018-09-08T06:47:39.000Z,30
2018-09-08T06:49:39.000Z,30
2018-09-08T06:50:39.000Z,30
2018-09-08T06:52:39.000Z,30.1
2018-09-08T06:54:39.000Z,30.1
2018-09-08T06:56:39.000Z,30
2018-09-08T06:58:39.000Z,30
2018-09-08T07:00:39.000Z,30
2018-09-08T07:02:39.000Z,30.1
2018-09-08T07:04:24.000Z,30.2
2018-09-08T07:05:39.000Z,30.2
2018-09-08T07:07:39.000Z,30.3
2018-09-08T07:09:39.000Z,30.3
2018-09-08T07:11:39.000Z,30.3
2018-09-08T07:13:39.000Z,30.3
2018-09-08T07:15:39.000Z,30.4
2018-09-08T07:17:39.000Z,30.5
2018-09-08T07:18:39.000Z,30.6
2018-09-08T07:19:39.000Z,30.7
2018-09-08T07:20:39.000Z,30.8
2018-09-08T07:22:39.000Z,30.9
2018-09-08T07:23:39.000Z,31
2018-09-08T07:25:39.000Z,31.1
2018-09-08T07:26:40.000Z,31.2
2018-09-08T07:27:40.000Z,31.2
2018-09-08T07:29:40.000Z,31.2
2018-09-08T07:30:40.000Z,31.2
2018-09-08T07:31:40.000Z,31.2
2018-09-08T07:32:40.000Z,31.3
2018-09-08T07:34:25.000Z,31.3
2018-09-08T07:35:40.000Z,31.1
2018-09-08T07:36:40.000Z,31
2018-09-08T07:37:40.000Z,31
2018-09-08T07:39:40.000Z,30.8
2018-09-08T07:41:40.000Z,30.6
2018-09-08T07:43:40.000Z,30.5
2018-09-08T07:44:40.000Z,30.4
2018-09-08T07:45:40.000Z,30.4
2018-09-08T07:47:40.000Z,30.4
2018-09-08T07:49:40.000Z,30.3
2018-09-08T07:51:40.000Z,30.2
2018-09-08T07:52:40.000Z,30.2
2018-09-08T07:54:25.000Z,30.2
2018-09-08T07:55:40.000Z,30.1
2018-09-08T07:57:40.000Z,30.1
2018-09-08T07:59:25.000Z,30
2018-09-08T08:00:40.000Z,30
2018-09-08T08:02:25.000Z,30
2018-09-08T08:03:40.000Z,29.9
2018-09-08T08:05:40.000Z,29.8
2018-09-08T08:06:40.000Z,29.8
2018-09-08T08:08:40.000Z,29.8
2018-09-08T08:09:40.000Z,29.8
2018-09-08T08:11:40.000Z,29.9
2018-09-08T08:12:40.000Z,29.9
2018-09-08T08:14:40.000Z,29.9
2018-09-08T08:16:40.000Z,29.9
2018-09-08T08:18:40.000Z,29.8
2018-09-08T08:20:40.000Z,29.7
2018-09-08T08:22:40.000Z,29.7
2018-09-08T08:24:40.000Z,29.6
2018-09-08T08:25:40.000Z,29.6
2018-09-08T08:27:40.000Z,29.6
2018-09-08T08:28:40.000Z,29.6
2018-09-08T08:29:39.000Z,29.7
2018-09-08T08:31:39.000Z,29.8
2018-09-08T08:33:39.000Z,29.7
2018-09-08T08:35:39.000Z,29.7
2018-09-08T08:36:39.000Z,29.7
2018-09-08T08:37:39.000Z,29.7
2018-09-08T08:38:39.000Z,29.8
2018-09-08T08:40:39.000Z,29.9
2018-09-08T08:41:39.000Z,29.9
2018-09-08T08:43:39.000Z,29.9
2018-09-08T08:44:39.000Z,29.8
2018-09-08T08:46:39.000Z,29.8
2018-09-08T08:47:39.000Z,29.8
2018-09-08T08:49:39.000Z,29.8
2018-09-08T08:51:39.000Z,29.7
2018-09-08T08:53:39.000Z,29.6
2018-09-08T08:54:39.000Z,29.6
2018-09-08T08:56:39.000Z,29.7
2018-09-08T08:58:39.000Z,29.7
2018-09-08T08:59:39.000Z,29.7
2018-09-08T09:01:39.000Z,29.7
2018-09-08T09:02:39.000Z,29.7
2018-09-08T09:03:39.000Z,29.8
2018-09-08T09:04:39.000Z,29.8
2018-09-08T09:06:39.000Z,29.8
2018-09-08T09:07:39.000Z,29.9
2018-09-08T09:09:39.000Z,29.8
2018-09-08T09:10:39.000Z,29.9
2018-09-08T09:12:39.000Z,29.9
2018-09-08T09:14:39.000Z,29.8
2018-09-08T09:16:39.000Z,29.8
2018-09-08T09:18:24.000Z,29.8
2018-09-08T09:19:39.000Z,29.7
2018-09-08T09:21:39.000Z,29.7
2018-09-08T09:23:39.000Z,29.7
2018-09-08T09:25:39.000Z,29.6
2018-09-08T09:27:39.000Z,29.6
2018-09-08T09:29:39.000Z,29.6
2018-09-08T09:30:39.000Z,29.5
2018-09-08T09:32:39.000Z,29.5
2018-09-08T09:33:40.000Z,29.5
2018-09-08T09:34:40.000Z,29.6
2018-09-08T09:35:40.000Z,29.7
2018-09-08T09:37:25.000Z,29.8
2018-09-08T09:38:40.000Z,29.8
2018-09-08T09:39:40.000Z,29.8
2018-09-08T09:40:40.000Z,29.8
2018-09-08T09:42:40.000Z,29.9
2018-09-08T09:43:40.000Z,29.8
2018-09-08T09:45:40.000Z,29.8
2018-09-08T09:47:40.000Z,29.8
2018-09-08T09:49:40.000Z,29.7
2018-09-08T09:50:40.000Z,29.7
2018-09-08T09:51:40.000Z,29.8
2018-09-08T09:53:40.000Z,29.8
2018-09-08T09:55:40.000Z,29.8
2018-09-08T09:57:40.000Z,29.7
2018-09-08T09:58:40.000Z,29.7
2018-09-08T09:59:40.000Z,29.7
2018-09-08T10:01:40.000Z,29.8
2018-09-08T10:02:40.000Z,29.8
2018-09-08T10:04:40.000Z,29.9
2018-09-08T10:05:40.000Z,29.9
2018-09-08T10:07:40.000Z,29.8
2018-09-08T10:09:40.000Z,29.8
2018-09-08T10:11:25.000Z,29.7
2018-09-08T10:12:40.000Z,29.7
2018-09-08T10:13:40.000Z,29.7
2018-09-08T10:15:40.000Z,29.7
2018-09-08T10:16:40.000Z,29.8
2018-09-08T10:17:40.000Z,29.8
2018-09-08T10:19:40.000Z,29.8
2018-09-08T10:20:40.000Z,29.8
2018-09-08T10:22:25.000Z,29.8
2018-09-08T10:23:40.000Z,29.8
2018-09-08T10:24:40.000Z,29.8
2018-09-08T10:25:40.000Z,29.8
2018-09-08T10:27:40.000Z,29.8
2018-09-08T10:29:40.000Z,29.8
2018-09-08T10:30:40.000Z,29.7
2018-09-08T10:32:40.000Z,29.7
2018-09-08T10:33:40.000Z,29.8
2018-09-08T10:34:40.000Z,29.8
2018-09-08T10:36:40.000Z,29.9
2018-09-08T10:38:40.000Z,29.8
2018-09-08T10:40:40.000Z,29.7
2018-09-08T10:42:40.000Z,29.6
2018-09-08T10:44:40.000Z,29.5
2018-09-08T10:46:40.000Z,29.5
2018-09-08T10:48:40.000Z,29.5
2018-09-08T10:49:40.000Z,29.5
2018-09-08T10:51:25.000Z,29.6
2018-09-08T10:52:40.000Z,29.6
2018-09-08T10:53:40.000Z,29.6
2018-09-08T10:55:40.000Z,29.7
2018-09-08T10:56:40.000Z,29.7
2018-09-08T10:58:40.000Z,29.7
2018-09-08T11:00:25.000Z,29.7
2018-09-08T11:01:40.000Z,29.7
2018-09-08T11:03:25.000Z,29.7
2018-09-08T11:04:40.000Z,29.7
2018-09-08T11:05:40.000Z,29.7
2018-09-08T11:06:40.000Z,29.7
2018-09-08T11:07:40.000Z,29.8
2018-09-08T11:09:25.000Z,29.8
2018-09-08T11:10:40.000Z,29.8
2018-09-08T11:12:40.000Z,29.7
2018-09-08T11:13:40.000Z,29.7
2018-09-08T11:15:40.000Z,29.8
2018-09-08T11:17:40.000Z,29.8
2018-09-08T11:18:40.000Z,29.8
2018-09-08T11:20:40.000Z,29.8
2018-09-08T11:22:40.000Z,29.7
2018-09-08T11:24:40.000Z,29.7
2018-09-08T11:26:40.000Z,29.7
2018-09-08T11:28:40.000Z,29.6
2018-09-08T11:29:40.000Z,29.6
2018-09-08T11:30:40.000Z,29.7
2018-09-08T11:32:40.000Z,29.8
2018-09-08T11:34:25.000Z,29.8
2018-09-08T11:35:40.000Z,29.7
2018-09-08T11:36:40.000Z,29.7
2018-09-08T11:37:40.000Z,29.8
2018-09-08T11:39:40.000Z,29.8
2018-09-08T11:41:25.000Z,29.8
2018-09-08T11:42:40.000Z,29.8
2018-09-08T11:44:40.000Z,29.8
2018-09-08T11:46:25.000Z,29.8
2018-09-08T11:47:40.000Z,29.7
2018-09-08T11:49:40.000Z,29.7
2018-09-08T11:51:40.000Z,29.7
2018-09-08T11:52:40.000Z,29.7
2018-09-08T11:53:40.000Z,29.8
2018-09-08T11:55:40.000Z,29.9
2018-09-08T11:57:40.000Z,29.9
2018-09-08T11:58:40.000Z,29.9
2018-09-08T11:59:40.000Z,29.9
2018-09-08T12:01:40.000Z,29.9
2018-09-08T12:02:40.000Z,29.9
2018-09-08T12:04:40.000Z,29.9
2018-09-08T12:06:40.000Z,29.9
2018-09-08T12:08:40.000Z,29.9
2018-09-08T12:10:40.000Z,29.8
2018-09-08T12:11:40.000Z,29.8
2018-09-08T12:13:25.000Z,29.8
2018-09-08T12:14:40.000Z,29.8
2018-09-08T12:16:40.000Z,29.8
2018-09-08T12:17:40.000Z,29.8
2018-09-08T12:18:40.000Z,29.8
2018-09-08T12:19:40.000Z,29.8
2018-09-08T12:20:40.000Z,29.8
2018-09-08T12:21:40.000Z,29.9
2018-09-08T12:22:40.000Z,29.9
2018-09-08T12:24:25.000Z,30
2018-09-08T12:25:40.000Z,29.9
2018-09-08T12:27:40.000Z,29.9
2018-09-08T12:28:40.000Z,29.9
2018-09-08T12:30:40.000Z,29.9
2018-09-08T12:32:40.000Z,29.9
2018-09-08T12:34:40.000Z,29.9
2018-09-08T12:36:40.000Z,29.8
2018-09-08T12:37:40.000Z,29.8
2018-09-08T12:39:25.000Z,29.8
2018-09-08T12:40:40.000Z,29.8
2018-09-08T12:41:40.000Z,29.8
2018-09-08T12:43:40.000Z,29.8
2018-09-08T12:44:40.000Z,29.8
2018-09-08T12:46:40.000Z,29.8
2018-09-08T12:48:40.000Z,29.8
2018-09-08T12:50:40.000Z,29.8
2018-09-08T12:51:40.000Z,29.8
2018-09-08T12:53:40.000Z,29.7
2018-09-08T12:55:40.000Z,29.7
2018-09-08T12:56:40.000Z,29.7
2018-09-08T12:57:40.000Z,29.8
2018-09-08T12:59:40.000Z,29.8
2018-09-08T13:01:40.000Z,29.8
2018-09-08T13:03:40.000Z,29.8
2018-09-08T13:05:25.000Z,29.8
2018-09-08T13:06:40.000Z,29.8
2018-09-08T13:08:40.000Z,29.8
2018-09-08T13:10:40.000Z,29.8
2018-09-08T13:11:40.000Z,29.8
2018-09-08T13:13:40.000Z,29.9
2018-09-08T13:14:40.000Z,29.9
2018-09-08T13:16:25.000Z,30
2018-09-08T13:17:40.000Z,30
2018-09-08T13:19:40.000Z,30
2018-09-08T13:20:40.000Z,30.1
2018-09-08T13:21:40.000Z,30.1
2018-09-08T13:23:40.000Z,30.2
2018-09-08T13:25:40.000Z,30.1
2018-09-08T13:27:40.000Z,30.1
2018-09-08T13:28:40.000Z,30.1
2018-09-08T13:30:40.000Z,30.3
2018-09-08T13:31:40.000Z,30.4
2018-09-08T13:33:40.000Z,30.8
2018-09-08T13:35:40.000Z,31.5
2018-09-08T13:37:40.000Z,31.4
2018-09-08T13:38:40.000Z,31.4
2018-09-08T13:40:40.000Z,31.4
2018-09-08T13:41:40.000Z,31.3
2018-09-08T13:42:40.000Z,31.5
2018-09-08T13:44:40.000Z,31.7
2018-09-08T13:46:40.000Z,31.5
2018-09-08T13:48:40.000Z,31.3
2018-09-08T13:49:40.000Z,31.3
2018-09-08T13:51:40.000Z,31.1
2018-09-08T13:52:40.000Z,31.1
2018-09-08T13:53:40.000Z,31
2018-09-08T13:55:40.000Z,30.9
2018-09-08T13:57:40.000Z,30.8
2018-09-08T13:58:40.000Z,30.7
2018-09-08T14:00:40.000Z,30.6
2018-09-08T14:02:40.000Z,30.5
2018-09-08T14:04:40.000Z,30.3
2018-09-08T14:05:40.000Z,30.3
2018-09-08T14:07:25.000Z,30.3
2018-09-08T14:08:40.000Z,30.2
2018-09-08T14:09:40.000Z,30.2
2018-09-08T14:11:25.000Z,30.3
2018-09-08T14:12:40.000Z,30.3
2018-09-08T14:13:40.000Z,30.3
2018-09-08T14:14:40.000Z,30.3
2018-09-08T14:15:40.000Z,30.4
2018-09-08T14:17:40.000Z,30.4
2018-09-08T14:19:40.000Z,30.4
2018-09-08T14:21:25.000Z,30.3
2018-09-08T14:22:40.000Z,30.3
2018-09-08T14:23:40.000Z,30.2
2018-09-08T14:24:40.000Z,30.3
2018-09-08T14:26:40.000Z,30.3
2018-09-08T14:28:40.000Z,30.2
2018-09-08T14:29:40.000Z,30.2
2018-09-08T14:30:40.000Z,30.2
2018-09-08T14:32:40.000Z,30.3
2018-09-08T14:34:40.000Z,30.1
2018-09-08T14:36:40.000Z,30
2018-09-08T14:37:40.000Z,30
2018-09-08T14:38:40.000Z,30
2018-09-08T14:40:40.000Z,30.1
2018-09-08T14:41:40.000Z,30.1
2018-09-08T14:43:40.000Z,30
2018-09-08T14:45:40.000Z,29.9
2018-09-08T14:47:40.000Z,29.8
2018-09-08T14:49:40.000Z,29.8
2018-09-08T14:50:40.000Z,29.8
2018-09-08T14:51:40.000Z,29.9
2018-09-08T14:53:40.000Z,30
2018-09-08T14:55:40.000Z,30
2018-09-08T14:57:40.000Z,29.9
2018-09-08T14:58:40.000Z,29.9
2018-09-08T14:59:40.000Z,29.9
2018-09-08T15:01:40.000Z,29.9
2018-09-08T15:03:40.000Z,29.9
2018-09-08T15:05:40.000Z,29.9
2018-09-08T15:07:40.000Z,29.9
2018-09-08T15:08:40.000Z,29.9
2018-09-08T15:09:40.000Z,29.9
2018-09-08T15:11:24.000Z,30
2018-09-08T15:12:40.000Z,29.9
2018-09-08T15:14:40.000Z,29.9
2018-09-08T15:16:40.000Z,29.9
2018-09-08T15:17:40.000Z,29.9
2018-09-08T15:19:40.000Z,29.9
2018-09-08T15:21:40.000Z,29.9
2018-09-08T15:23:40.000Z,29.9
2018-09-08T15:24:40.000Z,29.9
2018-09-08T15:25:40.000Z,29.9
2018-09-08T15:26:40.000Z,29.9
2018-09-08T15:28:40.000Z,30
2018-09-08T15:29:40.000Z,30
2018-09-08T15:31:40.000Z,30
2018-09-08T15:32:40.000Z,30
2018-09-08T15:34:40.000Z,30
2018-09-08T15:36:40.000Z,29.9
2018-09-08T15:37:40.000Z,29.9
2018-09-08T15:38:40.000Z,30
2018-09-08T15:40:40.000Z,30.1
2018-09-08T15:42:40.000Z,30
2018-09-08T15:44:40.000Z,30
2018-09-08T15:46:40.000Z,30
2018-09-08T15:48:40.000Z,30.1
2018-09-08T15:50:40.000Z,30.1
2018-09-08T15:51:40.000Z,30.2
2018-09-08T15:53:40.000Z,30.3
2018-09-08T15:55:39.000Z,30.3
2018-09-08T15:56:40.000Z,30.4
2018-09-08T15:57:40.000Z,30.5
2018-09-08T15:59:24.000Z,30.5
2018-09-08T16:00:40.000Z,30.5
2018-09-08T16:01:40.000Z,30.6
2018-09-08T16:03:40.000Z,30.6
2018-09-08T16:04:40.000Z,30.6
2018-09-08T16:05:40.000Z,30.6
2018-09-08T16:07:40.000Z,30.5
2018-09-08T16:09:39.000Z,30.4
2018-09-08T16:10:40.000Z,30.4
2018-09-08T16:11:40.000Z,30.4
2018-09-08T16:13:24.000Z,30.5
2018-09-08T16:14:40.000Z,30.4
2018-09-08T16:16:40.000Z,30.4
2018-09-08T16:18:40.000Z,30.4
2018-09-08T16:20:40.000Z,30.3
2018-09-08T16:22:40.000Z,30.2
2018-09-08T16:24:40.000Z,30.2
2018-09-08T16:26:40.000Z,30.2
2018-09-08T16:27:40.000Z,30.2
2018-09-08T16:29:40.000Z,30.2
2018-09-08T16:31:24.000Z,30.2
2018-09-08T16:32:40.000Z,30.2
2018-09-08T16:34:40.000Z,30.2
2018-09-08T16:36:40.000Z,30.1
2018-09-08T16:38:24.000Z,30.1
2018-09-08T16:39:40.000Z,30.1
2018-09-08T16:40:40.000Z,30.1
2018-09-08T16:41:40.000Z,30.2
2018-09-08T16:43:40.000Z,30.2
2018-09-08T16:44:40.000Z,30.2
2018-09-08T16:46:40.000Z,30.2
2018-09-08T16:48:40.000Z,30.1
2018-09-08T16:50:40.000Z,30.1
2018-09-08T16:52:40.000Z,30
2018-09-08T16:53:40.000Z,30
2018-09-08T16:55:40.000Z,30.1
2018-09-08T16:56:40.000Z,30.1
2018-09-08T16:57:40.000Z,30.1
2018-09-08T16:58:40.000Z,30.2
2018-09-08T17:00:25.000Z,30.3
2018-09-08T17:01:40.000Z,30.2
2018-09-08T17:03:40.000Z,30.2
2018-09-08T17:05:40.000Z,30.1
2018-09-08T17:07:40.000Z,30
2018-09-08T17:08:40.000Z,29.9
2018-09-08T17:10:40.000Z,29.9
2018-09-08T17:11:40.000Z,29.9
2018-09-08T17:13:40.000Z,29.9
2018-09-08T17:14:40.000Z,29.9
2018-09-08T17:15:40.000Z,29.9
2018-09-08T17:17:40.000Z,29.9
2018-09-08T17:19:40.000Z,29.9
2018-09-08T17:21:40.000Z,29.8
2018-09-08T17:23:40.000Z,29.7
2018-09-08T17:24:40.000Z,29.7
2018-09-08T17:25:40.000Z,29.8
2018-09-08T17:26:40.000Z,29.8
2018-09-08T17:27:40.000Z,29.9
2018-09-08T17:29:25.000Z,29.9
2018-09-08T17:30:40.000Z,29.9
2018-09-08T17:32:40.000Z,29.9
2018-09-08T17:34:40.000Z,29.8
2018-09-08T17:36:40.000Z,29.8
2018-09-08T17:38:40.000Z,29.8
2018-09-08T17:40:40.000Z,29.7
2018-09-08T17:42:25.000Z,29.6
2018-09-08T17:43:40.000Z,29.6
2018-09-08T17:44:40.000Z,29.6
2018-09-08T17:45:40.000Z,29.6
2018-09-08T17:47:40.000Z,29.7
2018-09-08T17:49:40.000Z,29.7
2018-09-08T17:51:40.000Z,29.7
2018-09-08T17:53:40.000Z,29.6
2018-09-08T17:55:40.000Z,29.6
2018-09-08T17:56:40.000Z,29.6
2018-09-08T17:58:25.000Z,29.7
2018-09-08T17:59:40.000Z,29.6
2018-09-08T18:01:40.000Z,29.6
2018-09-08T18:03:39.000Z,29.6
2018-09-08T18:05:39.000Z,29.6
2018-09-08T18:07:39.000Z,29.5
2018-09-08T18:08:39.000Z,29.5
2018-09-08T18:10:39.000Z,29.6
2018-09-08T18:11:39.000Z,29.6
2018-09-08T18:13:39.000Z,29.6
2018-09-08T18:15:39.000Z,29.6
2018-09-08T18:16:39.000Z,29.6
2018-09-08T18:18:39.000Z,29.6
2018-09-08T18:19:39.000Z,29.6
2018-09-08T18:20:39.000Z,29.6
2018-09-08T18:22:39.000Z,29.6
2018-09-08T18:23:39.000Z,29.6
2018-09-08T18:24:39.000Z,29.6
2018-09-08T18:26:39.000Z,29.7
2018-09-08T18:28:39.000Z,29.7
2018-09-08T18:30:39.000Z,29.6
2018-09-08T18:32:39.000Z,29.6
2018-09-08T18:34:39.000Z,29.5
2018-09-08T18:35:39.000Z,29.5
2018-09-08T18:37:39.000Z,29.6
2018-09-08T18:39:39.000Z,29.5
2018-09-08T18:40:39.000Z,29.5
2018-09-08T18:42:39.000Z,29.5
2018-09-08T18:43:39.000Z,29.5
2018-09-08T18:44:39.000Z,29.6
2018-09-08T18:46:39.000Z,29.6
2018-09-08T18:47:39.000Z,29.6
2018-09-08T18:49:39.000Z,29.6
2018-09-08T18:50:39.000Z,29.6
2018-09-08T18:51:39.000Z,29.7
2018-09-08T18:53:39.000Z,29.7
2018-09-08T18:54:39.000Z,29.7
2018-09-08T18:55:39.000Z,29.6
2018-09-08T18:57:39.000Z,29.6
2018-09-08T18:59:39.000Z,29.5
2018-09-08T19:00:39.000Z,29.5
2018-09-08T19:02:39.000Z,29.5
2018-09-08T19:03:39.000Z,29.5
2018-09-08T19:04:39.000Z,29.6
2018-09-08T19:06:40.000Z,29.6
2018-09-08T19:08:40.000Z,29.6
2018-09-08T19:09:40.000Z,29.6
2018-09-08T19:11:40.000Z,29.6
2018-09-08T19:12:40.000Z,29.6
2018-09-08T19:14:40.000Z,29.6
2018-09-08T19:15:40.000Z,29.6
2018-09-08T19:16:40.000Z,29.6
2018-09-08T19:18:25.000Z,29.6
2018-09-08T19:19:40.000Z,29.6
2018-09-08T19:21:40.000Z,29.6
2018-09-08T19:23:40.000Z,29.5
2018-09-08T19:25:40.000Z,29.4
2018-09-08T19:27:40.000Z,29.4
2018-09-08T19:28:40.000Z,29.4
2018-09-08T19:29:40.000Z,29.4
2018-09-08T19:30:40.000Z,29.5
2018-09-08T19:32:40.000Z,29.5
2018-09-08T19:33:40.000Z,29.5
2018-09-08T19:34:40.000Z,29.5
2018-09-08T19:36:40.000Z,29.6
2018-09-08T19:38:40.000Z,29.6
2018-09-08T19:40:40.000Z,29.5
2018-09-08T19:41:40.000Z,29.5
2018-09-08T19:43:40.000Z,29.5
2018-09-08T19:44:40.000Z,29.5
2018-09-08T19:45:40.000Z,29.6
2018-09-08T19:47:25.000Z,29.6
2018-09-08T19:48:40.000Z,29.6
2018-09-08T19:50:40.000Z,29.5
2018-09-08T19:51:40.000Z,29.5
2018-09-08T19:52:40.000Z,29.5
2018-09-08T19:54:40.000Z,29.6
2018-09-08T19:56:40.000Z,29.5
2018-09-08T19:57:40.000Z,29.5
2018-09-08T19:59:40.000Z,29.5
2018-09-08T20:01:40.000Z,29.5
2018-09-08T20:03:40.000Z,29.5
2018-09-08T20:05:40.000Z,29.4
2018-09-08T20:07:40.000Z,29.4
2018-09-08T20:08:40.000Z,29.4
2018-09-08T20:10:40.000Z,29.4
2018-09-08T20:11:40.000Z,29.5
2018-09-08T20:13:40.000Z,29.5
2018-09-08T20:15:40.000Z,29.5
2018-09-08T20:17:40.000Z,29.4
2018-09-08T20:19:40.000Z,29.3
2018-09-08T20:21:40.000Z,29.3
2018-09-08T20:22:40.000Z,29.3
2018-09-08T20:24:25.000Z,29.4
2018-09-08T20:25:40.000Z,29.3
2018-09-08T20:26:40.000Z,29.4
2018-09-08T20:27:40.000Z,29.4
2018-09-08T20:29:40.000Z,29.4
2018-09-08T20:31:40.000Z,29.4
2018-09-08T20:32:40.000Z,29.4
2018-09-08T20:34:40.000Z,29.4
2018-09-08T20:35:40.000Z,29.4
2018-09-08T20:36:40.000Z,29.4
2018-09-08T20:38:40.000Z,29.4
2018-09-08T20:39:40.000Z,29.4
2018-09-08T20:40:40.000Z,29.5
2018-09-08T20:41:40.000Z,29.5
2018-09-08T20:43:40.000Z,29.6
2018-09-08T20:44:40.000Z,29.6
2018-09-08T20:46:40.000Z,29.6
2018-09-08T20:47:40.000Z,29.6
2018-09-08T20:49:40.000Z,29.6
2018-09-08T20:50:40.000Z,29.6
2018-09-08T20:52:40.000Z,29.6
2018-09-08T20:54:40.000Z,29.5